sensor_id;sensor_type;location;lat;lon;timestamp;P1;durP1;ratioP1;P2;durP2;ratioP2
8632;SDS011;4354;49.832;10.746;2023-05-23T00:01:59;15.05;;;11.77;;
8632;SDS011;4354;49.832;10.746;2023-05-23T00:04:27;14.15;;;12.57;;
8632;SDS011;4354;49.832;10.746;2023-05-23T00:06:54;13.05;;;11.90;;
8632;SDS011;4354;49.832;10.746;2023-05-23T00:09:20;12.63;;;11.38;;
8632;SDS011;4354;49.832;10.746;2023-05-23T00:11:47;14.38;;;11.40;;
8632;SDS011;4354;49.832;10.746;2023-05-23T00:14:14;12.95;;;11.48;;
8632;SDS011;4354;49.832;10.746;2023-05-23T00:16:41;14.13;;;12.55;;
8632;SDS011;4354;49.832;10.746;2023-05-23T00:19:10;13.25;;;10.93;;
8632;SDS011;4354;49.832;10.746;2023-05-23T00:21:47;15.82;;;11.55;;
8632;SDS011;4354;49.832;10.746;2023-05-23T00:24:14;13.30;;;12.10;;
8632;SDS011;4354;49.832;10.746;2023-05-23T00:26:44;13.93;;;11.73;;
8632;SDS011;4354;49.832;10.746;2023-05-23T00:29:11;12.65;;;11.55;;
8632;SDS011;4354;49.832;10.746;2023-05-23T00:31:41;12.80;;;11.52;;
8632;SDS011;4354;49.832;10.746;2023-05-23T00:34:15;13.80;;;12.45;;
8632;SDS011;4354;49.832;10.746;2023-05-23T00:36:45;12.43;;;11.43;;
8632;SDS011;4354;49.832;10.746;2023-05-23T00:39:15;13.75;;;12.20;;
8632;SDS011;4354;49.832;10.746;2023-05-23T00:41:47;13.07;;;11.88;;
8632;SDS011;4354;49.832;10.746;2023-05-23T00:44:17;13.68;;;12.32;;
8632;SDS011;4354;49.832;10.746;2023-05-23T00:46:52;12.60;;;11.50;;
8632;SDS011;4354;49.832;10.746;2023-05-23T00:49:21;12.13;;;11.02;;
8632;SDS011;4354;49.832;10.746;2023-05-23T00:51:50;12.23;;;10.98;;
8632;SDS011;4354;49.832;10.746;2023-05-23T00:54:17;13.50;;;12.20;;
8632;SDS011;4354;49.832;10.746;2023-05-23T00:56:49;12.15;;;11.15;;
8632;SDS011;4354;49.832;10.746;2023-05-23T00:59:16;13.63;;;12.32;;
8632;SDS011;4354;49.832;10.746;2023-05-23T01:01:43;14.05;;;12.60;;
8632;SDS011;4354;49.832;10.746;2023-05-23T01:04:13;14.13;;;12.50;;
8632;SDS011;4354;49.832;10.746;2023-05-23T01:06:42;12.40;;;11.20;;
8632;SDS011;4354;49.832;10.746;2023-05-23T01:09:13;13.55;;;12.02;;
8632;SDS011;4354;49.832;10.746;2023-05-23T01:11:49;13.45;;;12.15;;
8632;SDS011;4354;49.832;10.746;2023-05-23T01:14:29;13.18;;;11.98;;
8632;SDS011;4354;49.832;10.746;2023-05-23T01:17:13;13.75;;;12.45;;
8632;SDS011;4354;49.832;10.746;2023-05-23T01:19:55;14.35;;;11.52;;
8632;SDS011;4354;49.832;10.746;2023-05-23T01:25:22;15.10;;;12.40;;
8632;SDS011;4354;49.832;10.746;2023-05-23T01:28:15;13.73;;;12.32;;
8632;SDS011;4354;49.832;10.746;2023-05-23T01:30:45;13.15;;;11.95;;
8632;SDS011;4354;49.832;10.746;2023-05-23T01:33:14;13.60;;;12.35;;
8632;SDS011;4354;49.832;10.746;2023-05-23T01:35:43;12.60;;;11.40;;
8632;SDS011;4354;49.832;10.746;2023-05-23T01:38:11;12.85;;;11.65;;
8632;SDS011;4354;49.832;10.746;2023-05-23T01:40:37;13.68;;;12.38;;
8632;SDS011;4354;49.832;10.746;2023-05-23T01:43:04;13.85;;;12.55;;
8632;SDS011;4354;49.832;10.746;2023-05-23T01:45:32;14.95;;;12.60;;
8632;SDS011;4354;49.832;10.746;2023-05-23T01:47:59;13.77;;;12.43;;
8632;SDS011;4354;49.832;10.746;2023-05-23T01:50:27;14.55;;;12.77;;
8632;SDS011;4354;49.832;10.746;2023-05-23T01:52:56;13.25;;;12.05;;
8632;SDS011;4354;49.832;10.746;2023-05-23T01:55:24;12.88;;;11.60;;
8632;SDS011;4354;49.832;10.746;2023-05-23T01:57:54;13.05;;;11.85;;
8632;SDS011;4354;49.832;10.746;2023-05-23T02:00:22;12.90;;;11.70;;
8632;SDS011;4354;49.832;10.746;2023-05-23T02:02:50;13.75;;;12.35;;
8632;SDS011;4354;49.832;10.746;2023-05-23T02:05:17;14.63;;;12.02;;
8632;SDS011;4354;49.832;10.746;2023-05-23T02:07:44;14.07;;;12.57;;
8632;SDS011;4354;49.832;10.746;2023-05-23T02:10:11;12.57;;;11.27;;
8632;SDS011;4354;49.832;10.746;2023-05-23T02:12:38;12.15;;;10.98;;
8632;SDS011;4354;49.832;10.746;2023-05-23T02:15:05;14.05;;;12.63;;
8632;SDS011;4354;49.832;10.746;2023-05-23T02:17:32;12.88;;;11.77;;
8632;SDS011;4354;49.832;10.746;2023-05-23T02:19:59;13.13;;;11.88;;
8632;SDS011;4354;49.832;10.746;2023-05-23T02:22:26;13.98;;;12.68;;
8632;SDS011;4354;49.832;10.746;2023-05-23T02:24:53;13.30;;;12.10;;
8632;SDS011;4354;49.832;10.746;2023-05-23T02:27:20;14.90;;;13.48;;
8632;SDS011;4354;49.832;10.746;2023-05-23T02:29:46;14.32;;;13.02;;
8632;SDS011;4354;49.832;10.746;2023-05-23T02:32:13;15.57;;;13.60;;
8632;SDS011;4354;49.832;10.746;2023-05-23T02:34:40;14.45;;;12.93;;
8632;SDS011;4354;49.832;10.746;2023-05-23T02:37:07;14.13;;;12.73;;
8632;SDS011;4354;49.832;10.746;2023-05-23T02:39:34;15.02;;;12.23;;
8632;SDS011;4354;49.832;10.746;2023-05-23T02:42:01;14.50;;;13.10;;
8632;SDS011;4354;49.832;10.746;2023-05-23T02:44:30;13.88;;;12.38;;
8632;SDS011;4354;49.832;10.746;2023-05-23T02:46:56;14.45;;;13.18;;
8632;SDS011;4354;49.832;10.746;2023-05-23T02:49:23;15.02;;;13.68;;
8632;SDS011;4354;49.832;10.746;2023-05-23T02:51:50;15.23;;;13.80;;
8632;SDS011;4354;49.832;10.746;2023-05-23T02:54:17;15.27;;;13.77;;
8632;SDS011;4354;49.832;10.746;2023-05-23T02:56:44;15.27;;;13.68;;
8632;SDS011;4354;49.832;10.746;2023-05-23T02:59:11;14.95;;;13.48;;
8632;SDS011;4354;49.832;10.746;2023-05-23T03:01:38;16.43;;;14.70;;
8632;SDS011;4354;49.832;10.746;2023-05-23T03:04:05;15.27;;;13.98;;
8632;SDS011;4354;49.832;10.746;2023-05-23T03:06:32;14.95;;;13.50;;
8632;SDS011;4354;49.832;10.746;2023-05-23T03:09:02;15.77;;;14.18;;
8632;SDS011;4354;49.832;10.746;2023-05-23T03:11:29;15.13;;;13.48;;
8632;SDS011;4354;49.832;10.746;2023-05-23T03:13:56;16.10;;;14.50;;
8632;SDS011;4354;49.832;10.746;2023-05-23T03:16:22;16.13;;;14.52;;
8632;SDS011;4354;49.832;10.746;2023-05-23T03:18:49;15.65;;;14.20;;
8632;SDS011;4354;49.832;10.746;2023-05-23T03:21:16;18.13;;;16.07;;
8632;SDS011;4354;49.832;10.746;2023-05-23T03:23:43;16.30;;;13.98;;
8632;SDS011;4354;49.832;10.746;2023-05-23T03:26:10;15.68;;;14.15;;
8632;SDS011;4354;49.832;10.746;2023-05-23T03:28:37;20.47;;;15.27;;
8632;SDS011;4354;49.832;10.746;2023-05-23T03:31:04;16.63;;;15.00;;
8632;SDS011;4354;49.832;10.746;2023-05-23T03:33:31;16.40;;;14.70;;
8632;SDS011;4354;49.832;10.746;2023-05-23T03:35:58;16.97;;;15.37;;
8632;SDS011;4354;49.832;10.746;2023-05-23T03:38:26;14.57;;;13.27;;
8632;SDS011;4354;49.832;10.746;2023-05-23T03:40:53;15.18;;;13.77;;
8632;SDS011;4354;49.832;10.746;2023-05-23T03:43:20;15.30;;;13.45;;
8632;SDS011;4354;49.832;10.746;2023-05-23T03:45:46;15.68;;;14.25;;
8632;SDS011;4354;49.832;10.746;2023-05-23T03:48:14;16.05;;;14.48;;
8632;SDS011;4354;49.832;10.746;2023-05-23T03:50:41;16.13;;;14.57;;
8632;SDS011;4354;49.832;10.746;2023-05-23T03:53:08;15.30;;;13.88;;
8632;SDS011;4354;49.832;10.746;2023-05-23T03:55:35;16.02;;;14.43;;
8632;SDS011;4354;49.832;10.746;2023-05-23T03:58:02;15.57;;;14.07;;
8632;SDS011;4354;49.832;10.746;2023-05-23T04:00:29;14.95;;;13.60;;
8632;SDS011;4354;49.832;10.746;2023-05-23T04:02:55;16.50;;;14.73;;
8632;SDS011;4354;49.832;10.746;2023-05-23T04:05:23;15.52;;;14.00;;
8632;SDS011;4354;49.832;10.746;2023-05-23T04:07:50;15.52;;;13.90;;
8632;SDS011;4354;49.832;10.746;2023-05-23T04:10:17;15.32;;;13.85;;
8632;SDS011;4354;49.832;10.746;2023-05-23T04:12:45;15.52;;;14.13;;
8632;SDS011;4354;49.832;10.746;2023-05-23T04:15:13;16.02;;;14.52;;
8632;SDS011;4354;49.832;10.746;2023-05-23T04:17:40;18.00;;;14.05;;
8632;SDS011;4354;49.832;10.746;2023-05-23T04:20:07;14.65;;;13.35;;
8632;SDS011;4354;49.832;10.746;2023-05-23T04:22:35;15.13;;;13.32;;
8632;SDS011;4354;49.832;10.746;2023-05-23T04:25:02;14.60;;;13.30;;
8632;SDS011;4354;49.832;10.746;2023-05-23T04:27:29;15.65;;;14.00;;
8632;SDS011;4354;49.832;10.746;2023-05-23T04:29:56;14.45;;;13.02;;
8632;SDS011;4354;49.832;10.746;2023-05-23T04:32:23;13.65;;;12.30;;
8632;SDS011;4354;49.832;10.746;2023-05-23T04:34:50;15.05;;;13.65;;
8632;SDS011;4354;49.832;10.746;2023-05-23T04:37:17;13.93;;;12.68;;
8632;SDS011;4354;49.832;10.746;2023-05-23T04:39:47;14.95;;;13.45;;
8632;SDS011;4354;49.832;10.746;2023-05-23T04:42:14;14.50;;;13.15;;
8632;SDS011;4354;49.832;10.746;2023-05-23T04:44:41;14.63;;;13.18;;
8632;SDS011;4354;49.832;10.746;2023-05-23T04:47:08;13.50;;;12.30;;
8632;SDS011;4354;49.832;10.746;2023-05-23T04:49:36;13.88;;;12.55;;
8632;SDS011;4354;49.832;10.746;2023-05-23T04:52:03;14.40;;;12.95;;
8632;SDS011;4354;49.832;10.746;2023-05-23T04:54:30;13.90;;;12.60;;
8632;SDS011;4354;49.832;10.746;2023-05-23T04:56:57;13.57;;;12.15;;
8632;SDS011;4354;49.832;10.746;2023-05-23T04:59:24;13.63;;;12.30;;
8632;SDS011;4354;49.832;10.746;2023-05-23T05:01:50;13.07;;;11.88;;
8632;SDS011;4354;49.832;10.746;2023-05-23T05:04:17;14.65;;;13.10;;
8632;SDS011;4354;49.832;10.746;2023-05-23T05:06:44;13.07;;;11.77;;
8632;SDS011;4354;49.832;10.746;2023-05-23T05:09:13;12.40;;;11.20;;
8632;SDS011;4354;49.832;10.746;2023-05-23T05:11:41;12.52;;;11.43;;
8632;SDS011;4354;49.832;10.746;2023-05-23T05:14:09;12.90;;;11.70;;
8632;SDS011;4354;49.832;10.746;2023-05-23T05:16:36;13.77;;;11.90;;
8632;SDS011;4354;49.832;10.746;2023-05-23T05:19:02;11.63;;;10.68;;
8632;SDS011;4354;49.832;10.746;2023-05-23T05:21:29;12.90;;;11.23;;
8632;SDS011;4354;49.832;10.746;2023-05-23T05:23:56;12.38;;;11.18;;
8632;SDS011;4354;49.832;10.746;2023-05-23T05:26:24;13.13;;;11.82;;
8632;SDS011;4354;49.832;10.746;2023-05-23T05:28:52;12.30;;;11.20;;
8632;SDS011;4354;49.832;10.746;2023-05-23T05:31:18;12.80;;;11.57;;
8632;SDS011;4354;49.832;10.746;2023-05-23T05:33:46;12.73;;;11.57;;
8632;SDS011;4354;49.832;10.746;2023-05-23T05:36:12;11.63;;;10.52;;
8632;SDS011;4354;49.832;10.746;2023-05-23T05:38:39;12.02;;;10.82;;
8632;SDS011;4354;49.832;10.746;2023-05-23T05:41:06;10.52;;;9.63;;
8632;SDS011;4354;49.832;10.746;2023-05-23T05:43:34;10.48;;;9.40;;
8632;SDS011;4354;49.832;10.746;2023-05-23T05:46:03;10.35;;;9.27;;
8632;SDS011;4354;49.832;10.746;2023-05-23T05:48:30;11.85;;;10.23;;
8632;SDS011;4354;49.832;10.746;2023-05-23T05:50:57;11.05;;;9.88;;
8632;SDS011;4354;49.832;10.746;2023-05-23T05:53:26;9.98;;;8.98;;
8632;SDS011;4354;49.832;10.746;2023-05-23T05:55:53;10.77;;;9.85;;
8632;SDS011;4354;49.832;10.746;2023-05-23T05:58:20;10.98;;;9.98;;
8632;SDS011;4354;49.832;10.746;2023-05-23T06:00:47;10.95;;;9.85;;
8632;SDS011;4354;49.832;10.746;2023-05-23T06:03:14;10.18;;;9.18;;
8632;SDS011;4354;49.832;10.746;2023-05-23T06:05:41;11.05;;;10.10;;
8632;SDS011;4354;49.832;10.746;2023-05-23T06:08:08;11.30;;;10.20;;
8632;SDS011;4354;49.832;10.746;2023-05-23T06:10:36;10.73;;;9.82;;
8632;SDS011;4354;49.832;10.746;2023-05-23T06:13:04;11.27;;;10.27;;
8632;SDS011;4354;49.832;10.746;2023-05-23T06:15:31;12.27;;;11.10;;
8632;SDS011;4354;49.832;10.746;2023-05-23T06:17:58;12.45;;;11.25;;
8632;SDS011;4354;49.832;10.746;2023-05-23T06:20:25;11.35;;;10.32;;
8632;SDS011;4354;49.832;10.746;2023-05-23T06:22:51;12.13;;;11.02;;
8632;SDS011;4354;49.832;10.746;2023-05-23T06:25:18;11.77;;;10.65;;
8632;SDS011;4354;49.832;10.746;2023-05-23T06:27:45;11.50;;;10.40;;
8632;SDS011;4354;49.832;10.746;2023-05-23T06:30:12;12.15;;;10.95;;
8632;SDS011;4354;49.832;10.746;2023-05-23T06:32:42;13.88;;;12.57;;
8632;SDS011;4354;49.832;10.746;2023-05-23T06:35:12;11.52;;;10.35;;
8632;SDS011;4354;49.832;10.746;2023-05-23T06:37:39;13.00;;;11.70;;
8632;SDS011;4354;49.832;10.746;2023-05-23T06:40:11;13.50;;;10.00;;
8632;SDS011;4354;49.832;10.746;2023-05-23T06:42:40;11.60;;;9.52;;
8632;SDS011;4354;49.832;10.746;2023-05-23T06:45:07;10.95;;;9.88;;
8632;SDS011;4354;49.832;10.746;2023-05-23T06:47:34;10.55;;;9.57;;
8632;SDS011;4354;49.832;10.746;2023-05-23T06:50:02;11.18;;;10.15;;
8632;SDS011;4354;49.832;10.746;2023-05-23T06:52:29;10.23;;;9.10;;
8632;SDS011;4354;49.832;10.746;2023-05-23T06:54:55;10.18;;;9.27;;
8632;SDS011;4354;49.832;10.746;2023-05-23T06:57:22;11.35;;;9.80;;
8632;SDS011;4354;49.832;10.746;2023-05-23T06:59:49;11.23;;;10.10;;
8632;SDS011;4354;49.832;10.746;2023-05-23T07:02:16;11.18;;;10.13;;
8632;SDS011;4354;49.832;10.746;2023-05-23T07:04:42;10.88;;;9.77;;
8632;SDS011;4354;49.832;10.746;2023-05-23T07:07:09;11.45;;;10.35;;
8632;SDS011;4354;49.832;10.746;2023-05-23T07:09:36;10.57;;;9.55;;
8632;SDS011;4354;49.832;10.746;2023-05-23T07:12:04;10.85;;;9.75;;
8632;SDS011;4354;49.832;10.746;2023-05-23T07:14:31;9.88;;;8.95;;
8632;SDS011;4354;49.832;10.746;2023-05-23T07:17:00;10.45;;;9.20;;
8632;SDS011;4354;49.832;10.746;2023-05-23T07:19:27;14.90;;;10.63;;
8632;SDS011;4354;49.832;10.746;2023-05-23T07:21:54;10.70;;;9.63;;
8632;SDS011;4354;49.832;10.746;2023-05-23T07:24:21;11.10;;;10.05;;
8632;SDS011;4354;49.832;10.746;2023-05-23T07:26:50;11.32;;;10.20;;
8632;SDS011;4354;49.832;10.746;2023-05-23T07:29:17;11.95;;;9.57;;
8632;SDS011;4354;49.832;10.746;2023-05-23T07:31:44;10.95;;;9.80;;
8632;SDS011;4354;49.832;10.746;2023-05-23T07:34:11;11.18;;;10.00;;
8632;SDS011;4354;49.832;10.746;2023-05-23T07:36:37;9.73;;;8.80;;
8632;SDS011;4354;49.832;10.746;2023-05-23T07:39:06;10.38;;;9.45;;
8632;SDS011;4354;49.832;10.746;2023-05-23T07:41:33;10.60;;;9.70;;
8632;SDS011;4354;49.832;10.746;2023-05-23T07:44:00;12.40;;;9.02;;
8632;SDS011;4354;49.832;10.746;2023-05-23T07:46:26;9.57;;;8.05;;
8632;SDS011;4354;49.832;10.746;2023-05-23T07:48:53;9.27;;;8.38;;
8632;SDS011;4354;49.832;10.746;2023-05-23T07:51:20;10.25;;;9.27;;
8632;SDS011;4354;49.832;10.746;2023-05-23T07:53:49;11.35;;;9.40;;
8632;SDS011;4354;49.832;10.746;2023-05-23T07:56:17;10.98;;;9.95;;
8632;SDS011;4354;49.832;10.746;2023-05-23T07:58:43;11.07;;;10.07;;
8632;SDS011;4354;49.832;10.746;2023-05-23T08:01:10;12.57;;;9.82;;
8632;SDS011;4354;49.832;10.746;2023-05-23T08:03:37;11.00;;;9.73;;
8632;SDS011;4354;49.832;10.746;2023-05-23T08:06:04;10.52;;;9.35;;
8632;SDS011;4354;49.832;10.746;2023-05-23T08:08:32;9.52;;;8.50;;
8632;SDS011;4354;49.832;10.746;2023-05-23T08:10:59;12.93;;;9.68;;
8632;SDS011;4354;49.832;10.746;2023-05-23T08:13:26;9.55;;;7.93;;
8632;SDS011;4354;49.832;10.746;2023-05-23T08:15:53;9.30;;;8.40;;
8632;SDS011;4354;49.832;10.746;2023-05-23T08:18:20;9.40;;;8.50;;
8632;SDS011;4354;49.832;10.746;2023-05-23T08:20:47;9.18;;;7.57;;
8632;SDS011;4354;49.832;10.746;2023-05-23T08:23:13;10.18;;;7.85;;
8632;SDS011;4354;49.832;10.746;2023-05-23T08:25:40;7.70;;;6.90;;
8632;SDS011;4354;49.832;10.746;2023-05-23T08:28:07;7.70;;;6.95;;
8632;SDS011;4354;49.832;10.746;2023-05-23T08:30:34;7.35;;;6.75;;
8632;SDS011;4354;49.832;10.746;2023-05-23T08:33:01;7.03;;;6.43;;
8632;SDS011;4354;49.832;10.746;2023-05-23T08:35:30;11.10;;;7.32;;
8632;SDS011;4354;49.832;10.746;2023-05-23T08:38:04;8.18;;;6.40;;
8632;SDS011;4354;49.832;10.746;2023-05-23T08:40:33;7.72;;;6.85;;
8632;SDS011;4354;49.832;10.746;2023-05-23T08:43:01;8.02;;;7.22;;
8632;SDS011;4354;49.832;10.746;2023-05-23T08:45:28;7.15;;;6.47;;
8632;SDS011;4354;49.832;10.746;2023-05-23T08:47:56;7.82;;;7.03;;
8632;SDS011;4354;49.832;10.746;2023-05-23T08:50:27;8.10;;;7.00;;
8632;SDS011;4354;49.832;10.746;2023-05-23T08:52:56;6.88;;;6.35;;
8632;SDS011;4354;49.832;10.746;2023-05-23T08:55:24;7.32;;;6.32;;
8632;SDS011;4354;49.832;10.746;2023-05-23T08:57:58;6.57;;;6.07;;
8632;SDS011;4354;49.832;10.746;2023-05-23T09:00:26;9.38;;;6.75;;
8632;SDS011;4354;49.832;10.746;2023-05-23T09:02:53;6.68;;;6.13;;
8632;SDS011;4354;49.832;10.746;2023-05-23T09:05:20;7.97;;;5.97;;
8632;SDS011;4354;49.832;10.746;2023-05-23T09:07:48;6.72;;;6.13;;
8632;SDS011;4354;49.832;10.746;2023-05-23T09:10:16;8.27;;;6.00;;
8632;SDS011;4354;49.832;10.746;2023-05-23T09:12:48;6.55;;;5.95;;
8632;SDS011;4354;49.832;10.746;2023-05-23T09:15:15;6.47;;;5.88;;
8632;SDS011;4354;49.832;10.746;2023-05-23T09:17:43;5.95;;;5.40;;
8632;SDS011;4354;49.832;10.746;2023-05-23T09:20:11;6.70;;;5.45;;
8632;SDS011;4354;49.832;10.746;2023-05-23T09:22:40;5.70;;;5.13;;
8632;SDS011;4354;49.832;10.746;2023-05-23T09:25:10;5.43;;;5.03;;
8632;SDS011;4354;49.832;10.746;2023-05-23T09:27:37;6.40;;;5.28;;
8632;SDS011;4354;49.832;10.746;2023-05-23T09:30:07;6.10;;;5.50;;
8632;SDS011;4354;49.832;10.746;2023-05-23T09:32:36;5.68;;;5.15;;
8632;SDS011;4354;49.832;10.746;2023-05-23T09:35:04;8.65;;;5.90;;
8632;SDS011;4354;49.832;10.746;2023-05-23T09:37:36;6.30;;;5.68;;
8632;SDS011;4354;49.832;10.746;2023-05-23T09:40:05;5.40;;;5.00;;
8632;SDS011;4354;49.832;10.746;2023-05-23T09:42:41;5.30;;;4.70;;
8632;SDS011;4354;49.832;10.746;2023-05-23T09:45:13;5.90;;;5.40;;
8632;SDS011;4354;49.832;10.746;2023-05-23T09:47:50;7.32;;;5.75;;
8632;SDS011;4354;49.832;10.746;2023-05-23T09:50:18;5.40;;;4.90;;
8632;SDS011;4354;49.832;10.746;2023-05-23T09:52:46;5.13;;;4.65;;
8632;SDS011;4354;49.832;10.746;2023-05-23T09:55:13;4.82;;;4.43;;
8632;SDS011;4354;49.832;10.746;2023-05-23T09:57:40;5.22;;;4.72;;
8632;SDS011;4354;49.832;10.746;2023-05-23T10:00:08;4.25;;;3.88;;
8632;SDS011;4354;49.832;10.746;2023-05-23T10:05:34;3.20;;;3.00;;
8632;SDS011;4354;49.832;10.746;2023-05-23T10:08:18;3.67;;;3.22;;
8632;SDS011;4354;49.832;10.746;2023-05-23T10:13:25;3.53;;;3.22;;
8632;SDS011;4354;49.832;10.746;2023-05-23T10:16:05;4.43;;;3.25;;
8632;SDS011;4354;49.832;10.746;2023-05-23T10:18:43;5.28;;;3.50;;
8632;SDS011;4354;49.832;10.746;2023-05-23T10:21:11;3.08;;;2.78;;
8632;SDS011;4354;49.832;10.746;2023-05-23T10:23:41;3.17;;;2.90;;
8632;SDS011;4354;49.832;10.746;2023-05-23T10:26:09;3.63;;;3.33;;
8632;SDS011;4354;49.832;10.746;2023-05-23T10:28:36;3.05;;;2.85;;
8632;SDS011;4354;49.832;10.746;2023-05-23T10:31:05;3.28;;;2.97;;
8632;SDS011;4354;49.832;10.746;2023-05-23T10:33:34;2.97;;;2.75;;
8632;SDS011;4354;49.832;10.746;2023-05-23T10:36:50;3.22;;;3.00;;
8632;SDS011;4354;49.832;10.746;2023-05-23T10:39:20;3.08;;;2.78;;
8632;SDS011;4354;49.832;10.746;2023-05-23T10:41:58;2.92;;;2.70;;
8632;SDS011;4354;49.832;10.746;2023-05-23T10:44:32;2.80;;;2.60;;
8632;SDS011;4354;49.832;10.746;2023-05-23T10:46:59;2.97;;;2.70;;
8632;SDS011;4354;49.832;10.746;2023-05-23T10:50:13;3.85;;;2.88;;
8632;SDS011;4354;49.832;10.746;2023-05-23T10:52:22;2.70;;;2.45;;
8632;SDS011;4354;49.832;10.746;2023-05-23T10:54:53;2.88;;;2.50;;
8632;SDS011;4354;49.832;10.746;2023-05-23T10:57:21;2.97;;;2.70;;
8632;SDS011;4354;49.832;10.746;2023-05-23T10:59:54;2.50;;;2.30;;
8632;SDS011;4354;49.832;10.746;2023-05-23T11:02:25;2.80;;;2.50;;
8632;SDS011;4354;49.832;10.746;2023-05-23T11:10:54;2.42;;;2.20;;
8632;SDS011;4354;49.832;10.746;2023-05-23T11:13:24;3.83;;;2.50;;
8632;SDS011;4354;49.832;10.746;2023-05-23T11:15:52;2.30;;;2.10;;
8632;SDS011;4354;49.832;10.746;2023-05-23T11:18:20;2.75;;;2.55;;
8632;SDS011;4354;49.832;10.746;2023-05-23T11:20:48;2.63;;;2.10;;
8632;SDS011;4354;49.832;10.746;2023-05-23T11:23:19;2.58;;;2.38;;
8632;SDS011;4354;49.832;10.746;2023-05-23T11:25:48;2.53;;;2.33;;
8632;SDS011;4354;49.832;10.746;2023-05-23T11:28:15;2.78;;;2.50;;
8632;SDS011;4354;49.832;10.746;2023-05-23T11:30:42;4.13;;;2.60;;
8632;SDS011;4354;49.832;10.746;2023-05-23T11:33:13;2.78;;;2.22;;
8632;SDS011;4354;49.832;10.746;2023-05-23T11:35:42;4.25;;;2.70;;
8632;SDS011;4354;49.832;10.746;2023-05-23T11:38:10;3.20;;;2.88;;
8632;SDS011;4354;49.832;10.746;2023-05-23T11:40:39;2.85;;;2.60;;
8632;SDS011;4354;49.832;10.746;2023-05-23T11:43:09;3.45;;;2.80;;
8632;SDS011;4354;49.832;10.746;2023-05-23T11:45:41;2.53;;;2.30;;
8632;SDS011;4354;49.832;10.746;2023-05-23T11:48:08;2.80;;;2.60;;
8632;SDS011;4354;49.832;10.746;2023-05-23T11:50:44;3.03;;;2.60;;
8632;SDS011;4354;49.832;10.746;2023-05-23T11:53:19;2.55;;;2.35;;
8632;SDS011;4354;49.832;10.746;2023-05-23T11:55:51;4.10;;;2.70;;
8632;SDS011;4354;49.832;10.746;2023-05-23T11:58:28;3.05;;;2.85;;
8632;SDS011;4354;49.832;10.746;2023-05-23T12:01:00;2.95;;;2.70;;
8632;SDS011;4354;49.832;10.746;2023-05-23T12:03:28;2.95;;;2.70;;
8632;SDS011;4354;49.832;10.746;2023-05-23T12:05:57;2.83;;;2.60;;
8632;SDS011;4354;49.832;10.746;2023-05-23T12:08:24;2.90;;;2.70;;
8632;SDS011;4354;49.832;10.746;2023-05-23T12:10:51;2.72;;;2.53;;
8632;SDS011;4354;49.832;10.746;2023-05-23T12:13:19;2.70;;;2.50;;
8632;SDS011;4354;49.832;10.746;2023-05-23T12:15:56;2.90;;;2.70;;
8632;SDS011;4354;49.832;10.746;2023-05-23T12:18:31;3.08;;;2.38;;
8632;SDS011;4354;49.832;10.746;2023-05-23T12:21:01;2.70;;;2.50;;
8632;SDS011;4354;49.832;10.746;2023-05-23T12:23:31;4.80;;;2.92;;
8632;SDS011;4354;49.832;10.746;2023-05-23T12:26:02;2.60;;;2.40;;
8632;SDS011;4354;49.832;10.746;2023-05-23T12:33:39;2.53;;;2.33;;
8632;SDS011;4354;49.832;10.746;2023-05-23T12:36:09;4.97;;;2.70;;
8632;SDS011;4354;49.832;10.746;2023-05-23T12:38:40;2.63;;;2.42;;
8632;SDS011;4354;49.832;10.746;2023-05-23T12:41:11;3.25;;;2.70;;
8632;SDS011;4354;49.832;10.746;2023-05-23T12:43:48;2.60;;;2.40;;
8632;SDS011;4354;49.832;10.746;2023-05-23T12:46:17;2.58;;;2.38;;
8632;SDS011;4354;49.832;10.746;2023-05-23T12:48:47;2.42;;;2.22;;
8632;SDS011;4354;49.832;10.746;2023-05-23T12:51:14;3.08;;;2.50;;
8632;SDS011;4354;49.832;10.746;2023-05-23T12:53:41;2.80;;;2.60;;
8632;SDS011;4354;49.832;10.746;2023-05-23T12:56:09;2.47;;;2.28;;
8632;SDS011;4354;49.832;10.746;2023-05-23T12:58:35;2.55;;;2.35;;
8632;SDS011;4354;49.832;10.746;2023-05-23T13:01:02;2.67;;;2.47;;
8632;SDS011;4354;49.832;10.746;2023-05-23T13:03:29;2.38;;;2.17;;
8632;SDS011;4354;49.832;10.746;2023-05-23T13:05:57;2.90;;;2.70;;
8632;SDS011;4354;49.832;10.746;2023-05-23T13:08:24;2.35;;;2.15;;
8632;SDS011;4354;49.832;10.746;2023-05-23T13:10:52;2.50;;;2.30;;
8632;SDS011;4354;49.832;10.746;2023-05-23T13:13:19;2.08;;;1.92;;
8632;SDS011;4354;49.832;10.746;2023-05-23T13:15:46;2.38;;;2.17;;
8632;SDS011;4354;49.832;10.746;2023-05-23T13:18:16;2.30;;;2.10;;
8632;SDS011;4354;49.832;10.746;2023-05-23T13:20:43;2.10;;;1.92;;
8632;SDS011;4354;49.832;10.746;2023-05-23T13:23:10;3.90;;;2.17;;
8632;SDS011;4354;49.832;10.746;2023-05-23T13:25:37;2.78;;;2.22;;
8632;SDS011;4354;49.832;10.746;2023-05-23T13:28:04;2.80;;;2.17;;
8632;SDS011;4354;49.832;10.746;2023-05-23T13:30:31;2.63;;;2.42;;
8632;SDS011;4354;49.832;10.746;2023-05-23T13:32:58;3.03;;;2.47;;
8632;SDS011;4354;49.832;10.746;2023-05-23T13:35:25;4.03;;;2.20;;
8632;SDS011;4354;49.832;10.746;2023-05-23T13:37:52;4.22;;;2.30;;
8632;SDS011;4354;49.832;10.746;2023-05-23T13:40:19;3.67;;;2.38;;
8632;SDS011;4354;49.832;10.746;2023-05-23T13:42:47;2.80;;;2.58;;
8632;SDS011;4354;49.832;10.746;2023-05-23T13:45:18;2.53;;;2.20;;
8632;SDS011;4354;49.832;10.746;2023-05-23T13:47:45;2.38;;;2.17;;
8632;SDS011;4354;49.832;10.746;2023-05-23T13:50:12;2.40;;;2.20;;
8632;SDS011;4354;49.832;10.746;2023-05-23T13:52:39;3.55;;;1.80;;
8632;SDS011;4354;49.832;10.746;2023-05-23T13:55:11;2.25;;;2.00;;
8632;SDS011;4354;49.832;10.746;2023-05-23T13:57:38;3.22;;;2.08;;
8632;SDS011;4354;49.832;10.746;2023-05-23T14:00:05;2.83;;;2.25;;
8632;SDS011;4354;49.832;10.746;2023-05-23T14:02:34;3.25;;;3.00;;
8632;SDS011;4354;49.832;10.746;2023-05-23T14:05:01;3.47;;;2.20;;
8632;SDS011;4354;49.832;10.746;2023-05-23T14:07:29;2.72;;;1.88;;
8632;SDS011;4354;49.832;10.746;2023-05-23T14:09:56;2.65;;;1.67;;
8632;SDS011;4354;49.832;10.746;2023-05-23T14:12:24;5.47;;;2.40;;
8632;SDS011;4354;49.832;10.746;2023-05-23T14:14:52;2.40;;;2.20;;
8632;SDS011;4354;49.832;10.746;2023-05-23T14:17:19;2.35;;;2.15;;
8632;SDS011;4354;49.832;10.746;2023-05-23T14:19:46;2.20;;;2.00;;
8632;SDS011;4354;49.832;10.746;2023-05-23T14:22:13;2.90;;;1.90;;
8632;SDS011;4354;49.832;10.746;2023-05-23T14:24:40;2.33;;;2.13;;
8632;SDS011;4354;49.832;10.746;2023-05-23T14:27:07;2.65;;;2.10;;
8632;SDS011;4354;49.832;10.746;2023-05-23T14:29:36;1.95;;;1.85;;
8632;SDS011;4354;49.832;10.746;2023-05-23T14:32:04;2.50;;;2.15;;
8632;SDS011;4354;49.832;10.746;2023-05-23T14:34:31;4.00;;;2.45;;
8632;SDS011;4354;49.832;10.746;2023-05-23T14:36:59;3.33;;;2.40;;
8632;SDS011;4354;49.832;10.746;2023-05-23T14:39:26;2.60;;;2.40;;
8632;SDS011;4354;49.832;10.746;2023-05-23T14:41:54;2.55;;;2.35;;
8632;SDS011;4354;49.832;10.746;2023-05-23T14:44:21;3.85;;;2.40;;
8632;SDS011;4354;49.832;10.746;2023-05-23T14:46:48;2.58;;;2.38;;
8632;SDS011;4354;49.832;10.746;2023-05-23T14:49:16;3.50;;;2.30;;
8632;SDS011;4354;49.832;10.746;2023-05-23T14:51:43;2.60;;;2.40;;
8632;SDS011;4354;49.832;10.746;2023-05-23T14:54:16;4.22;;;2.53;;
8632;SDS011;4354;49.832;10.746;2023-05-23T14:56:43;3.30;;;2.33;;
8632;SDS011;4354;49.832;10.746;2023-05-23T14:59:10;3.50;;;2.03;;
8632;SDS011;4354;49.832;10.746;2023-05-23T15:01:37;2.63;;;2.42;;
8632;SDS011;4354;49.832;10.746;2023-05-23T15:04:05;2.95;;;2.67;;
8632;SDS011;4354;49.832;10.746;2023-05-23T15:06:34;2.53;;;2.33;;
8632;SDS011;4354;49.832;10.746;2023-05-23T15:09:01;2.20;;;2.00;;
8632;SDS011;4354;49.832;10.746;2023-05-23T15:11:28;2.60;;;2.38;;
8632;SDS011;4354;49.832;10.746;2023-05-23T15:13:55;2.42;;;2.22;;
8632;SDS011;4354;49.832;10.746;2023-05-23T15:16:22;2.25;;;2.05;;